createdAt,value
2023-04-22T00:02:32.582Z,13.63
2023-04-22T00:05:35.760Z,13.48
2023-04-22T00:08:38.228Z,13.45
2023-04-22T00:11:40.836Z,13.53
2023-04-22T00:14:43.387Z,13.53
2023-04-22T00:17:46.102Z,13.49
2023-04-22T00:20:48.586Z,13.32
2023-04-22T00:23:51.173Z,13.34
2023-04-22T00:26:53.584Z,13.23
2023-04-22T00:29:56.343Z,13.30
2023-04-22T00:32:58.754Z,13.21
2023-04-22T00:36:01.391Z,13.27
2023-04-22T00:39:03.876Z,13.28
2023-04-22T00:42:07.841Z,13.29
2023-04-22T00:45:11.983Z,13.22
2023-04-22T00:48:14.680Z,13.18
2023-04-22T00:51:17.027Z,13.12
2023-04-22T00:54:20.198Z,13.08
2023-04-22T00:57:22.824Z,13.19
2023-04-22T01:00:27.434Z,13.10
2023-04-22T01:03:30.889Z,13.06
2023-04-22T01:06:35.472Z,12.81
2023-04-22T01:09:40.047Z,12.65
2023-04-22T01:12:42.912Z,12.59
2023-04-22T01:15:46.115Z,12.67
2023-04-22T01:18:49.058Z,12.48
2023-04-22T01:21:52.302Z,12.53
2023-04-22T01:24:55.201Z,12.48
2023-04-22T01:27:58.466Z,12.29
2023-04-22T01:31:01.174Z,12.26
2023-04-22T01:34:05.446Z,12.19
2023-04-22T01:37:08.091Z,12.12
2023-04-22T01:40:11.505Z,12.08
2023-04-22T01:43:14.089Z,11.90
2023-04-22T01:46:18.131Z,12.04
2023-04-22T01:49:21.088Z,11.97
2023-04-22T01:52:23.441Z,11.91
2023-04-22T01:55:26.046Z,12.01
2023-04-22T01:58:33.471Z,11.86
2023-04-22T02:01:36.085Z,12.00
2023-04-22T02:04:41.938Z,11.93
2023-04-22T02:07:44.297Z,11.91
2023-04-22T02:10:46.921Z,11.90
2023-04-22T02:13:49.932Z,11.85
2023-04-22T02:16:52.830Z,11.75
2023-04-22T02:19:55.645Z,11.67
2023-04-22T02:22:58.228Z,11.71
2023-04-22T02:26:01.552Z,11.66
2023-04-22T02:29:04.540Z,11.68
2023-04-22T02:32:07.234Z,11.61
2023-04-22T02:35:11.648Z,11.61
2023-04-22T02:38:14.264Z,11.46
2023-04-22T02:41:18.077Z,11.43
2023-04-22T02:44:20.696Z,11.48
2023-04-22T02:47:23.798Z,11.48
2023-04-22T02:50:26.481Z,11.55
2023-04-22T02:53:28.783Z,11.56
2023-04-22T02:56:31.892Z,11.57
2023-04-22T02:59:35.075Z,11.46
2023-04-22T03:02:38.963Z,11.55
2023-04-22T03:05:41.724Z,11.53
2023-04-22T03:08:45.890Z,11.48
2023-04-22T03:11:51.272Z,11.39
2023-04-22T03:14:53.860Z,11.47
2023-04-22T03:17:56.645Z,11.46
2023-04-22T03:21:01.002Z,11.35
2023-04-22T03:24:03.461Z,11.46
2023-04-22T03:27:06.506Z,11.53
2023-04-22T03:30:09.186Z,11.44
2023-04-22T03:33:11.947Z,11.41
2023-04-22T03:36:15.110Z,11.52
2023-04-22T03:39:18.233Z,11.50
2023-04-22T03:42:20.932Z,11.50
2023-04-22T03:45:23.724Z,11.37
2023-04-22T03:48:29.048Z,11.44
2023-04-22T03:51:32.163Z,11.41
2023-04-22T03:54:35.458Z,11.33
2023-04-22T03:57:38.542Z,11.17
2023-04-22T04:00:41.095Z,11.24
2023-04-22T04:03:44.090Z,11.31
2023-04-22T04:06:46.989Z,11.32
2023-04-22T04:09:49.549Z,11.20
2023-04-22T04:12:52.383Z,11.18
2023-04-22T04:15:56.332Z,11.31
2023-04-22T04:19:03.836Z,11.24
2023-04-22T04:22:07.254Z,11.29
2023-04-22T04:25:11.757Z,11.21
2023-04-22T04:28:17.693Z,11.27
2023-04-22T04:31:20.519Z,11.19
2023-04-22T04:34:23.510Z,11.23
2023-04-22T04:37:26.439Z,11.30
2023-04-22T04:40:30.661Z,11.22
2023-04-22T04:43:35.259Z,11.38
2023-04-22T04:46:39.534Z,11.41
2023-04-22T04:49:43.620Z,11.53
2023-04-22T04:52:48.724Z,11.44
2023-04-22T04:55:51.701Z,11.47
2023-04-22T04:58:56.475Z,11.63
2023-04-22T05:01:59.320Z,11.64
2023-04-22T05:05:02.593Z,11.67
2023-04-22T05:08:05.741Z,11.63
2023-04-22T05:11:09.471Z,11.61
2023-04-22T05:14:12.146Z,11.43
2023-04-22T05:17:14.921Z,11.49
2023-04-22T05:20:17.439Z,11.48
2023-04-22T05:23:20.635Z,11.55
2023-04-22T05:26:24.858Z,11.70
2023-04-22T05:29:28.559Z,11.57
2023-04-22T05:32:31.100Z,11.63
2023-04-22T05:35:33.762Z,11.74
2023-04-22T05:38:36.285Z,11.74
2023-04-22T05:41:39.029Z,11.77
2023-04-22T05:44:43.657Z,11.86
2023-04-22T05:47:46.776Z,11.72
2023-04-22T05:50:49.514Z,11.86
2023-04-22T05:53:53.293Z,11.93
2023-04-22T05:56:56.866Z,12.00
2023-04-22T06:00:00.953Z,11.99
2023-04-22T06:03:03.777Z,12.31
2023-04-22T06:06:06.998Z,12.89
2023-04-22T06:09:09.369Z,13.22
2023-04-22T06:12:12.058Z,13.49
2023-04-22T06:15:14.626Z,13.80
2023-04-22T06:18:17.579Z,14.01
2023-04-22T06:21:20.692Z,14.13
2023-04-22T06:24:23.667Z,14.29
2023-04-22T06:27:26.579Z,14.51
2023-04-22T06:30:29.369Z,14.63
2023-04-22T06:33:31.769Z,14.82
2023-04-22T06:36:37.731Z,15.08
2023-04-22T06:39:42.118Z,15.27
2023-04-22T06:42:45.459Z,15.46
2023-04-22T06:45:51.692Z,15.79
2023-04-22T06:48:54.619Z,15.99
2023-04-22T06:52:06.483Z,16.19
2023-04-22T06:55:09.830Z,16.31
2023-04-22T06:58:12.154Z,16.65
2023-04-22T07:01:14.807Z,16.85
2023-04-22T07:04:17.298Z,17.00
2023-04-22T07:07:20.129Z,17.24
2023-04-22T07:10:22.662Z,17.27
2023-04-22T07:13:27.240Z,17.36
2023-04-22T07:16:29.596Z,17.61
2023-04-22T07:19:35.602Z,17.70
2023-04-22T07:22:38.057Z,17.80
2023-04-22T07:25:40.687Z,17.75
2023-04-22T07:28:43.027Z,17.67
2023-04-22T07:31:45.814Z,17.76
2023-04-22T07:34:48.175Z,17.83
2023-04-22T07:37:50.859Z,17.87
2023-04-22T07:40:53.211Z,18.02
2023-04-22T07:43:55.869Z,17.90
2023-04-22T07:46:59.282Z,18.15
2023-04-22T07:50:02.000Z,18.29
2023-04-22T07:53:04.299Z,18.32
2023-04-22T07:56:06.909Z,18.27
2023-04-22T07:59:09.319Z,18.48
2023-04-22T08:02:12.254Z,18.76
2023-04-22T08:05:15.047Z,18.75
2023-04-22T08:08:17.577Z,18.66
2023-04-22T08:11:20.297Z,18.79
2023-04-22T08:14:22.652Z,19.00
2023-04-22T08:17:25.566Z,18.99
2023-04-22T08:20:28.038Z,18.92
2023-04-22T08:23:30.731Z,19.00
2023-04-22T08:26:33.167Z,19.17
2023-04-22T08:29:36.046Z,19.09
2023-04-22T08:32:41.631Z,19.22
2023-04-22T08:35:44.382Z,19.05
2023-04-22T08:38:48.936Z,19.12
2023-04-22T08:41:54.040Z,19.26
2023-04-22T08:44:57.656Z,19.75
2023-04-22T08:48:00.932Z,19.72
2023-04-22T08:51:04.072Z,19.58
2023-04-22T08:54:06.713Z,19.81
2023-04-22T08:57:11.303Z,20.04
2023-04-22T09:00:15.090Z,20.20
2023-04-22T09:03:18.479Z,19.95
2023-04-22T09:06:22.144Z,20.17
2023-04-22T09:09:25.014Z,19.96
2023-04-22T09:12:27.831Z,19.90
2023-04-22T09:15:30.377Z,20.12
2023-04-22T09:18:40.475Z,20.48
2023-04-22T09:21:43.029Z,20.55
2023-04-22T09:24:51.917Z,20.38
2023-04-22T09:27:56.411Z,20.41
2023-04-22T09:31:01.066Z,20.12
2023-04-22T09:34:04.527Z,20.16
2023-04-22T09:37:07.173Z,20.52
2023-04-22T09:40:09.730Z,20.58
2023-04-22T09:43:20.235Z,20.86
2023-04-22T09:46:24.548Z,20.62
2023-04-22T09:49:27.951Z,20.86
2023-04-22T09:52:33.163Z,20.98
2023-04-22T09:55:41.617Z,21.24
2023-04-22T09:58:43.926Z,21.48
2023-04-22T10:01:46.791Z,21.33
2023-04-22T10:04:49.568Z,21.19
2023-04-22T10:07:52.233Z,20.70
2023-04-22T10:10:55.946Z,20.54
2023-04-22T10:14:01.031Z,20.36
2023-04-22T10:17:05.344Z,20.02
2023-04-22T10:20:16.356Z,20.67
2023-04-22T10:23:21.522Z,20.99
2023-04-22T10:26:48.687Z,21.33
2023-04-22T10:29:51.435Z,21.76
2023-04-22T10:32:53.735Z,21.43
2023-04-22T10:36:20.452Z,20.87
2023-04-22T10:39:23.994Z,20.71
2023-04-22T10:42:29.012Z,20.66
2023-04-22T10:45:32.745Z,20.63
2023-04-22T10:48:48.736Z,21.48
2023-04-22T10:51:55.874Z,21.78
2023-04-22T10:54:59.591Z,22.15
2023-04-22T10:58:02.078Z,22.12
2023-04-22T11:01:15.042Z,22.71
2023-04-22T11:04:23.199Z,22.73
2023-04-22T11:07:30.713Z,22.97
2023-04-22T11:10:47.260Z,22.58
2023-04-22T11:13:51.916Z,22.58
2023-04-22T11:16:55.058Z,22.76
2023-04-22T11:19:58.802Z,22.10
2023-04-22T11:23:02.955Z,22.16
2023-04-22T11:26:06.994Z,21.88
2023-04-22T11:29:09.335Z,21.47
2023-04-22T11:32:12.020Z,21.32
2023-04-22T11:35:21.832Z,21.41
2023-04-22T11:38:24.489Z,21.59
2023-04-22T11:41:28.172Z,21.77
2023-04-22T11:44:30.786Z,21.70
2023-04-22T11:47:34.767Z,21.49
2023-04-22T11:50:39.689Z,21.42
2023-04-22T11:53:50.851Z,21.22
2023-04-22T11:56:54.439Z,21.51
2023-04-22T11:59:59.219Z,21.08
2023-04-22T12:03:12.672Z,21.24
2023-04-22T12:06:17.523Z,21.16
2023-04-22T12:09:23.846Z,21.19
2023-04-22T12:12:26.638Z,21.16
2023-04-22T12:15:41.575Z,21.55
2023-04-22T12:18:54.986Z,21.84
2023-04-22T12:21:57.867Z,22.48
2023-04-22T12:25:01.305Z,22.62
2023-04-22T12:28:03.751Z,22.83
2023-04-22T12:31:06.889Z,22.64
2023-04-22T12:34:09.275Z,22.66
2023-04-22T12:37:12.077Z,22.08
2023-04-22T12:40:14.517Z,21.99
2023-04-22T12:43:17.750Z,21.95
2023-04-22T12:46:20.139Z,21.94
2023-04-22T12:49:23.006Z,21.85
2023-04-22T12:52:25.341Z,21.89
2023-04-22T12:55:28.118Z,22.64
2023-04-22T12:58:30.483Z,23.28
2023-04-22T13:01:35.254Z,23.68
2023-04-22T13:04:38.392Z,23.23
2023-04-22T13:07:46.851Z,23.56
2023-04-22T13:10:54.158Z,24.07
2023-04-22T13:13:57.660Z,24.13
2023-04-22T13:17:00.512Z,23.77
2023-04-22T13:20:05.065Z,23.66
2023-04-22T13:23:08.208Z,23.89
2023-04-22T13:26:11.549Z,23.72
2023-04-22T13:29:14.199Z,23.57
2023-04-22T13:32:16.956Z,23.33
2023-04-22T13:35:19.319Z,22.84
2023-04-22T13:38:22.151Z,22.97
2023-04-22T13:41:24.505Z,22.85
2023-04-22T13:44:27.212Z,22.88
2023-04-22T13:47:31.125Z,22.69
2023-04-22T13:50:34.296Z,22.79
2023-04-22T13:53:36.641Z,22.73
2023-04-22T13:56:39.367Z,22.53
2023-04-22T13:59:42.219Z,22.46
2023-04-22T14:02:45.343Z,22.33
2023-04-22T14:05:48.093Z,22.79
2023-04-22T14:08:50.726Z,22.59
2023-04-22T14:11:53.459Z,22.47
2023-04-22T14:14:55.936Z,22.43
2023-04-22T14:17:58.670Z,22.44
2023-04-22T14:21:01.099Z,22.33
2023-04-22T14:24:04.144Z,22.06
2023-04-22T14:27:06.787Z,21.97
2023-04-22T14:30:10.039Z,22.17
2023-04-22T14:33:12.814Z,22.11
2023-04-22T14:36:16.021Z,22.39
2023-04-22T14:39:18.374Z,22.43
2023-04-22T14:42:21.294Z,22.30
2023-04-22T14:45:25.326Z,22.38
2023-04-22T14:48:30.946Z,22.37
2023-04-22T14:51:33.798Z,22.36
2023-04-22T14:54:36.455Z,22.55
2023-04-22T14:57:38.869Z,22.41
2023-04-22T15:00:41.584Z,22.42
2023-04-22T15:03:44.250Z,22.09
2023-04-22T15:06:47.193Z,22.02
2023-04-22T15:09:49.596Z,22.04
2023-04-22T15:12:52.444Z,21.87
2023-04-22T15:15:54.777Z,21.80
2023-04-22T15:18:57.440Z,21.87
2023-04-22T15:21:59.921Z,21.81
2023-04-22T15:25:03.504Z,21.76
2023-04-22T15:28:05.961Z,21.78
2023-04-22T17:37:39.296Z,19.92
2023-04-22T19:37:42.090Z,17.65
